Time;durP1;ratioP1;P1;durP2;ratioP2;P2;SDS_P1;SDS_P2;PMS_P1;PMS_P2;Temp;Humidity;BMP_temperature;BMP_pressure;BME280_temperature;BME280_humidity;BME280_pressure;Samples;Min_cycle;Max_cycle;Signal;HPM_P1;HPM_P2
2021/04/21 00:02:23;;;;;;;3.55;2.60;;;18.30;33.40;;;;;;4954819;28;20192;-84
2021/04/21 00:04:54;;;;;;;4.65;2.60;;;18.30;33.50;;;;;;4977028;28;20201;-84
2021/04/21 00:07:24;;;;;;;4.20;2.53;;;18.30;33.50;;;;;;4976642;28;20596;-84
2021/04/21 00:09:59;;;;;;;3.28;2.20;;;18.30;33.50;;;;;;4976938;28;20180;-84
2021/04/21 00:12:26;;;;;;;3.88;2.38;;;18.30;33.50;;;;;;4978014;28;20188;-84
2021/04/21 00:14:53;;;;;;;2.60;2.40;;;18.30;33.50;;;;;;4977716;28;20188;-83
2021/04/21 00:17:23;;;;;;;4.40;2.58;;;18.30;33.50;;;;;;4993082;28;20157;-83
2021/04/21 00:19:52;;;;;;;5.18;2.40;;;18.30;33.60;;;;;;4992970;28;20161;-85
2021/04/21 00:22:27;;;;;;;2.78;2.38;;;18.30;33.60;;;;;;4992098;28;20161;-84
2021/04/21 00:24:54;;;;;;;4.68;2.40;;;18.30;33.60;;;;;;4976490;28;20204;-84
2021/04/21 00:27:23;;;;;;;2.63;2.40;;;18.30;33.60;;;;;;4976084;28;20165;-84
2021/04/21 00:30:06;;;;;;;5.07;2.50;;;18.30;33.50;;;;;;4976270;28;20161;-84
2021/04/21 00:32:44;;;;;;;2.90;2.15;;;18.30;33.70;;;;;;4992223;28;20567;-83
2021/04/21 00:35:47;;;;;;;2.80;2.22;;;18.30;33.60;;;;;;4975973;28;20726;-84
2021/04/21 00:38:18;;;;;;;3.55;2.22;;;18.30;33.80;;;;;;4991087;28;20231;-85
2021/04/21 00:40:44;;;;;;;3.70;2.58;;;18.20;33.70;;;;;;4976173;28;20193;-84
2021/04/21 00:43:21;;;;;;;2.65;2.35;;;18.20;33.80;;;;;;4992006;28;20168;-84
2021/04/21 00:46:15;;;;;;;4.15;2.50;;;18.20;33.80;;;;;;4993364;28;20219;-83
2021/04/21 00:49:03;;;;;;;3.33;2.47;;;18.20;33.70;;;;;;4991446;28;20176;-84
2021/04/21 00:51:36;;;;;;;3.25;2.45;;;18.20;33.80;;;;;;4990840;28;20165;-82
2021/04/21 00:54:39;;;;;;;3.67;2.33;;;18.20;33.90;;;;;;4991624;28;20176;-84
2021/04/21 00:57:40;;;;;;;3.63;2.50;;;18.20;33.90;;;;;;4972947;28;20252;-84
2021/04/21 01:00:34;;;;;;;3.85;2.55;;;18.20;33.90;;;;;;4971873;28;20199;-85
2021/04/21 01:03:13;;;;;;;5.07;2.58;;;18.20;33.90;;;;;;4971843;29;20154;-85
2021/04/21 01:05:41;;;;;;;3.60;2.50;;;18.20;33.90;;;;;;4971639;29;20567;-84
2021/04/21 01:08:12;;;;;;;3.67;2.30;;;18.20;33.90;;;;;;4972415;29;20162;-83
2021/04/21 01:11:18;;;;;;;5.38;2.50;;;18.20;33.90;;;;;;4956292;29;20166;-84
2021/04/21 01:13:56;;;;;;;3.00;2.33;;;18.20;34.00;;;;;;4973161;28;20168;-84
2021/04/21 01:16:24;;;;;;;2.58;2.38;;;18.20;34.10;;;;;;4970703;29;20153;-83
2021/04/21 01:19:01;;;;;;;3.55;2.47;;;18.20;34.20;;;;;;4956097;29;20193;-83
2021/04/21 01:21:42;;;;;;;3.63;2.10;;;18.20;34.20;;;;;;4972144;29;20165;-83
2021/04/21 01:24:47;;;;;;;3.55;2.47;;;18.20;34.20;;;;;;4940476;29;20197;-83
2021/04/21 01:27:45;;;;;;;3.38;2.50;;;18.20;34.20;;;;;;4972957;28;20221;-84
2021/04/21 01:30:15;;;;;;;3.38;2.47;;;18.20;34.20;;;;;;4972450;28;20157;-83
2021/04/21 01:32:43;;;;;;;5.13;2.70;;;18.20;34.20;;;;;;4956226;29;20539;-84
2021/04/21 01:35:14;;;;;;;3.75;2.47;;;18.10;34.20;;;;;;4956725;29;20197;-84
2021/04/21 01:37:40;;;;;;;7.10;2.42;;;18.10;34.20;;;;;;4971777;29;20161;-83
2021/04/21 01:40:15;;;;;;;3.45;2.35;;;18.10;34.30;;;;;;4956098;29;20169;-82
2021/04/21 01:42:45;;;;;;;2.78;2.22;;;18.10;34.30;;;;;;4956996;29;20172;-85
2021/04/21 01:45:18;;;;;;;3.28;2.30;;;18.10;34.30;;;;;;4971351;28;20656;-84
2021/04/21 01:47:47;;;;;;;3.65;2.25;;;18.10;34.30;;;;;;4971150;29;20154;-82
2021/04/21 01:50:20;;;;;;;2.47;2.25;;;18.10;34.30;;;;;;4971478;29;20162;-82
2021/04/21 01:53:16;;;;;;;2.58;2.35;;;18.10;34.40;;;;;;4955239;29;20165;-83
2021/04/21 01:55:59;;;;;;;3.22;2.28;;;18.10;34.40;;;;;;4979287;28;20217;-84
2021/04/21 01:58:46;;;;;;;2.70;2.47;;;18.10;34.40;;;;;;4974259;28;20169;-85
2021/04/21 02:01:31;;;;;;;3.33;2.60;;;18.10;34.40;;;;;;4990227;28;20165;-83
2021/04/21 02:04:24;;;;;;;3.00;2.28;;;18.10;34.50;;;;;;4989906;28;20172;-83
2021/04/21 02:07:09;;;;;;;2.70;2.20;;;18.10;34.50;;;;;;4989983;28;20176;-84
2021/04/21 02:10:00;;;;;;;4.72;2.22;;;18.10;34.50;;;;;;4974977;28;20153;-84
2021/04/21 02:12:52;;;;;;;2.92;2.30;;;18.10;34.50;;;;;;4970346;28;20201;-84
2021/04/21 02:15:35;;;;;;;3.35;2.38;;;18.10;35.30;;;;;;4970803;29;20150;-83
2021/04/21 02:18:09;;;;;;;4.38;2.20;;;18.10;34.50;;;;;;4970706;29;20192;-83
2021/04/21 02:21:12;;;;;;;2.80;2.40;;;18.10;34.60;;;;;;4953897;29;20205;-82
2021/04/21 02:24:07;;;;;;;4.38;2.65;;;18.10;34.60;;;;;;4954759;29;20192;-83
2021/04/21 02:26:51;;;;;;;3.50;2.53;;;18.10;34.70;;;;;;4954245;29;20190;-84
2021/04/21 02:30:12;;;;;;;3.50;2.53;;;18.10;34.60;;;;;;4936716;29;20193;-83
2021/04/21 02:33:03;;;;;;;4.78;2.40;;;18.20;34.60;;;;;;4896811;29;20212;-84
2021/04/21 02:35:42;;;;;;;3.20;2.20;;;18.10;34.60;;;;;;4896456;29;20216;-84
2021/04/21 02:38:32;;;;;;;2.50;2.20;;;18.10;34.60;;;;;;4881944;29;20171;-85
2021/04/21 02:41:19;;;;;;;3.33;2.47;;;18.10;34.70;;;;;;4884180;29;20224;-85
2021/04/21 02:44:06;;;;;;;4.85;2.33;;;18.10;34.90;;;;;;4881461;29;20220;-85
2021/04/21 02:46:57;;;;;;;2.50;2.30;;;18.10;34.90;;;;;;4912288;29;20190;-82
2021/04/21 02:49:52;;;;;;;2.20;2.00;;;18.10;34.90;;;;;;4921362;29;20239;-82
2021/04/21 02:52:39;;;;;;;4.22;2.17;;;18.10;35.00;;;;;;4914061;29;20627;-83
2021/04/21 02:55:11;;;;;;;3.47;2.50;;;18.00;34.90;;;;;;4913823;29;20229;-85
2021/04/21 02:57:40;;;;;;;3.92;2.40;;;18.00;34.80;;;;;;4899900;29;20198;-85
2021/04/21 03:00:51;;;;;;;2.55;2.30;;;18.10;34.90;;;;;;4918877;29;20179;-84
2021/04/21 03:03:42;;;;;;;5.15;2.70;;;18.10;34.90;;;;;;4932693;29;20168;-84
2021/04/21 03:06:38;;;;;;;3.78;2.60;;;18.10;34.90;;;;;;4919362;29;20198;-84
2021/04/21 03:09:04;;;;;;;3.63;2.40;;;18.00;35.00;;;;;;4990993;28;20189;-83
2021/04/21 03:11:43;;;;;;;3.05;2.45;;;18.00;35.10;;;;;;4993585;28;20156;-83
2021/04/21 03:14:22;;;;;;;3.03;2.40;;;18.00;35.00;;;;;;4993539;28;20608;-84
2021/04/21 03:16:55;;;;;;;3.55;2.30;;;18.00;35.00;;;;;;4976924;28;20244;-84
2021/04/21 03:19:25;;;;;;;2.80;2.40;;;18.00;35.00;;;;;;4977133;28;20173;-84
2021/04/21 03:22:02;;;;;;;3.08;2.13;;;18.00;35.00;;;;;;4976226;28;20165;-84
2021/04/21 03:24:34;;;;;;;2.65;2.22;;;18.00;35.00;;;;;;4976224;28;20225;-84
2021/04/21 03:27:07;;;;;;;3.65;2.38;;;18.00;35.10;;;;;;4976356;28;20172;-85
2021/04/21 03:30:11;;;;;;;2.53;2.22;;;18.00;35.10;;;;;;4991611;28;20208;-84
2021/04/21 03:33:07;;;;;;;2.60;2.40;;;18.10;35.00;;;;;;4978704;28;20164;-83
2021/04/21 03:35:36;;;;;;;4.00;2.45;;;18.00;35.10;;;;;;4991529;28;20195;-83
2021/04/21 03:38:30;;;;;;;4.82;2.63;;;18.00;35.20;;;;;;4975869;28;20173;-84
2021/04/21 03:41:16;;;;;;;3.35;2.40;;;18.00;35.30;;;;;;4991322;28;20160;-85
2021/04/21 03:43:45;;;;;;;3.10;2.22;;;18.00;35.30;;;;;;4975518;28;20157;-83
2021/04/21 03:46:32;;;;;;;2.65;2.30;;;18.00;35.20;;;;;;4959946;28;20208;-84
2021/04/21 03:49:14;;;;;;;3.15;2.35;;;18.00;35.20;;;;;;4974802;28;20180;-83
2021/04/21 03:51:41;;;;;;;3.85;2.60;;;18.00;35.40;;;;;;4992822;28;20188;-84
2021/04/21 03:54:14;;;;;;;2.50;2.30;;;18.00;35.40;;;;;;4992803;28;20228;-83
2021/04/21 03:56:45;;;;;;;2.75;2.28;;;18.00;35.50;;;;;;4976219;28;20231;-83
2021/04/21 03:59:12;;;;;;;2.90;2.38;;;18.00;35.50;;;;;;4992521;28;20167;-84
2021/04/21 04:01:39;;;;;;;2.47;2.10;;;18.00;35.50;;;;;;4976359;28;20160;-82
2021/04/21 04:04:07;;;;;;;3.45;2.10;;;18.00;35.30;;;;;;4994543;28;20173;-84
2021/04/21 04:06:57;;;;;;;2.58;2.30;;;18.00;35.40;;;;;;4996926;28;20184;-83
2021/04/21 04:09:25;;;;;;;3.20;2.08;;;18.00;35.50;;;;;;4981192;28;20191;-82
2021/04/21 04:12:05;;;;;;;3.55;2.13;;;18.00;35.50;;;;;;4980424;28;20168;-82
2021/04/21 04:14:51;;;;;;;3.40;2.30;;;18.00;35.40;;;;;;4980558;28;20161;-83
2021/04/21 04:17:30;;;;;;;3.97;2.25;;;18.00;35.30;;;;;;4978096;28;20165;-81
2021/04/21 04:19:57;;;;;;;3.08;2.05;;;18.10;35.20;;;;;;4994947;28;20169;-81
2021/04/21 04:22:24;;;;;;;2.58;2.05;;;18.10;35.10;;;;;;4979971;28;20172;-81
2021/04/21 04:24:59;;;;;;;3.53;2.45;;;18.10;35.20;;;;;;4979117;28;20176;-82
2021/04/21 04:27:27;;;;;;;3.03;2.50;;;18.10;35.20;;;;;;4979256;28;20224;-80
2021/04/21 04:29:58;;;;;;;3.00;2.15;;;18.10;35.50;;;;;;4963443;28;20226;-81
2021/04/21 04:32:28;;;;;;;2.25;2.05;;;18.00;35.40;;;;;;4978820;28;20152;-81
2021/04/21 04:34:57;;;;;;;2.47;2.10;;;18.00;35.50;;;;;;4963355;28;20618;-81
2021/04/21 04:37:26;;;;;;;2.40;1.98;;;18.00;35.50;;;;;;4978131;28;20169;-82
2021/04/21 04:39:54;;;;;;;3.70;1.98;;;18.00;35.60;;;;;;4978759;28;20615;-81
2021/04/21 04:42:28;;;;;;;3.05;2.10;;;17.90;35.60;;;;;;4978956;28;20153;-80
2021/04/21 04:44:55;;;;;;;3.45;2.25;;;18.00;35.70;;;;;;4995450;28;20189;-81
2021/04/21 04:47:46;;;;;;;4.28;2.25;;;17.90;35.60;;;;;;4963792;28;20165;-82
2021/04/21 04:50:32;;;;;;;3.05;2.13;;;18.00;35.70;;;;;;4995309;28;20180;-82
2021/04/21 04:53:03;;;;;;;2.88;2.03;;;18.00;35.60;;;;;;4995004;28;20153;-81
2021/04/21 04:55:29;;;;;;;3.00;1.98;;;18.00;35.50;;;;;;4997984;28;20215;-81
2021/04/21 04:57:56;;;;;;;2.45;1.80;;;18.00;35.50;;;;;;4967435;28;20178;-81
2021/04/21 05:00:32;;;;;;;2.20;1.95;;;18.00;35.50;;;;;;4982938;28;20171;-81
2021/04/21 05:03:10;;;;;;;4.90;2.15;;;18.10;35.30;;;;;;4999178;28;20148;-81
2021/04/21 05:05:41;;;;;;;2.42;2.00;;;18.10;35.30;;;;;;4996759;28;20192;-81
2021/04/21 05:08:10;;;;;;;3.08;2.13;;;18.10;35.30;;;;;;4979193;28;20168;-84
2021/04/21 05:10:58;;;;;;;2.47;2.00;;;18.10;35.30;;;;;;4979123;28;20215;-83
2021/04/21 05:13:40;;;;;;;2.40;1.70;;;18.20;35.10;;;;;;4970717;28;20165;-82
2021/04/21 05:16:11;;;;;;;2.42;2.05;;;18.20;35.20;;;;;;4958537;28;20264;-82
2021/04/21 05:18:56;;;;;;;2.15;1.83;;;18.10;35.30;;;;;;4970767;28;20172;-83
2021/04/21 05:21:43;;;;;;;1.90;1.70;;;18.10;35.30;;;;;;4989469;28;20165;-82
2021/04/21 05:24:51;;;;;;;2.60;2.20;;;18.10;35.30;;;;;;4987431;28;20605;-82
2021/04/21 05:27:38;;;;;;;1.70;1.60;;;18.10;35.30;;;;;;4986571;28;20171;-82
2021/04/21 05:30:16;;;;;;;3.67;1.90;;;18.10;35.30;;;;;;4986777;28;20156;-83
2021/04/21 05:33:15;;;;;;;3.03;2.00;;;18.10;35.20;;;;;;4974800;28;20171;-84
2021/04/21 05:36:23;;;;;;;2.60;1.85;;;18.10;35.10;;;;;;4977620;28;20199;-84
2021/04/21 05:39:09;;;;;;;3.00;2.10;;;18.10;35.10;;;;;;5007959;28;20156;-84
2021/04/21 05:42:03;;;;;;;2.78;1.77;;;18.20;35.00;;;;;;4990718;28;20243;-83
2021/04/21 05:44:54;;;;;;;1.80;1.60;;;18.20;34.90;;;;;;4970174;28;20212;-84
2021/04/21 05:47:58;;;;;;;2.58;1.65;;;18.20;34.80;;;;;;4969844;28;20191;-83
2021/04/21 05:50:49;;;;;;;2.92;1.90;;;18.30;34.70;;;;;;4969504;28;20161;-83
2021/04/21 05:53:20;;;;;;;1.85;1.67;;;18.30;34.70;;;;;;4987138;28;20617;-82
2021/04/21 05:56:14;;;;;;;1.85;1.70;;;18.30;34.60;;;;;;4967642;28;20225;-82
2021/04/21 05:59:23;;;;;;;2.05;1.63;;;18.40;34.50;;;;;;4969998;28;20249;-80
2021/04/21 06:01:49;;;;;;;1.85;1.70;;;18.40;34.50;;;;;;4924837;29;20192;-80
2021/04/21 06:04:24;;;;;;;2.17;1.70;;;18.40;34.50;;;;;;4909819;29;20226;-81
2021/04/21 06:07:03;;;;;;;1.77;1.58;;;18.30;34.60;;;;;;4925830;29;20741;-80
2021/04/21 06:09:29;;;;;;;1.85;1.70;;;18.30;34.60;;;;;;4927377;29;20159;-80
2021/04/21 06:12:08;;;;;;;2.22;1.70;;;18.30;35.10;;;;;;4927993;29;20705;-81
2021/04/21 06:14:34;;;;;;;2.55;1.75;;;18.30;35.20;;;;;;4910236;29;20178;-80
2021/04/21 06:17:04;;;;;;;2.08;1.65;;;18.30;34.90;;;;;;4913711;29;20207;-79
2021/04/21 06:19:31;;;;;;;2.30;1.50;;;18.30;35.00;;;;;;4915691;29;20156;-80
2021/04/21 06:22:01;;;;;;;2.63;1.70;;;18.30;34.80;;;;;;4916410;29;20190;-79
2021/04/21 06:24:29;;;;;;;1.75;1.50;;;18.30;34.60;;;;;;4930269;29;20211;-79
2021/04/21 06:27:11;;;;;;;2.35;1.92;;;18.40;34.30;;;;;;4928263;29;20186;-79
2021/04/21 06:29:44;;;;;;;2.20;1.30;;;18.30;34.20;;;;;;4928252;29;20172;-80
2021/04/21 06:32:13;;;;;;;1.75;1.60;;;18.40;34.10;;;;;;4913587;29;20591;-80
2021/04/21 06:34:40;;;;;;;1.60;1.38;;;18.40;34.00;;;;;;4917691;29;20354;-79
2021/04/21 06:37:07;;;;;;;2.50;1.60;;;18.40;33.90;;;;;;4933539;29;20213;-79
2021/04/21 06:39:33;;;;;;;2.10;1.52;;;18.40;33.90;;;;;;4940671;28;20277;-80
2021/04/21 06:42:04;;;;;;;1.70;1.60;;;18.40;34.00;;;;;;4957411;28;20197;-79
2021/04/21 06:44:45;;;;;;;1.75;1.60;;;18.40;34.00;;;;;;4974174;28;20272;-79
2021/04/21 06:47:27;;;;;;;1.48;1.38;;;18.30;33.90;;;;;;4974452;29;20264;-79
2021/04/21 06:50:10;;;;;;;3.03;1.60;;;18.40;33.90;;;;;;4974535;28;20416;-79
2021/04/21 06:53:03;;;;;;;2.75;1.67;;;18.40;33.60;;;;;;4957647;29;20211;-79
2021/04/21 06:55:29;;;;;;;2.00;1.60;;;18.40;33.90;;;;;;4952556;28;20233;-78
2021/04/21 06:57:55;;;;;;;2.08;1.75;;;18.40;33.80;;;;;;4923088;29;20232;-81
2021/04/21 07:18:40;;;;;;;1.77;1.58;;;18.30;34.00;;;;;;5991573;23;20159;-84
2021/04/21 07:21:13;;;;;;;2.15;1.50;;;18.40;33.80;;;;;;4942269;28;20208;-79
2021/04/21 07:23:42;;;;;;;2.00;1.67;;;18.50;33.70;;;;;;4949275;28;20258;-80
2021/04/21 07:26:16;;;;;;;2.03;1.60;;;18.50;33.70;;;;;;4956510;28;20236;-80
2021/04/21 07:28:43;;;;;;;3.53;1.75;;;18.50;33.70;;;;;;4951707;29;20204;-81
2021/04/21 07:31:16;;;;;;;1.65;1.50;;;18.50;33.70;;;;;;4940484;28;20299;-79
2021/04/21 07:33:49;;;;;;;1.70;1.60;;;18.60;33.60;;;;;;4942395;29;20241;-83
2021/04/21 07:36:21;;;;;;;2.20;1.58;;;18.50;33.70;;;;;;4953524;28;20813;-82
2021/04/21 07:38:53;;;;;;;1.60;1.50;;;18.50;33.70;;;;;;4954005;28;20204;-82
2021/04/21 07:41:54;;;;;;;2.20;1.58;;;18.50;33.60;;;;;;4959191;29;20292;-85
2021/04/21 07:44:52;;;;;;;1.80;1.70;;;18.50;33.70;;;;;;4922468;29;20309;-83
2021/04/21 07:47:21;;;;;;;2.40;1.77;;;18.60;33.70;;;;;;4921525;29;20274;-85
2021/04/21 07:49:56;;;;;;;3.15;1.80;;;18.50;33.70;;;;;;4934384;29;20229;-84
2021/04/21 07:52:41;;;;;;;3.90;1.80;;;18.50;33.70;;;;;;4920544;29;20201;-84
2021/04/21 07:55:19;;;;;;;2.15;1.63;;;18.50;33.70;;;;;;4905444;29;20210;-83
2021/04/21 07:57:58;;;;;;;3.72;1.83;;;18.50;33.70;;;;;;4916537;29;20198;-83
2021/04/21 08:00:28;;;;;;;2.47;1.60;;;18.50;33.90;;;;;;4891763;29;20305;-83
2021/04/21 08:02:56;;;;;;;2.47;1.65;;;18.50;33.70;;;;;;4921590;29;20182;-83
2021/04/21 08:05:24;;;;;;;2.05;1.50;;;18.50;33.60;;;;;;4911403;29;20312;-85
2021/04/21 08:08:03;;;;;;;2.67;1.60;;;18.50;33.60;;;;;;4929984;29;20202;-83
2021/04/21 08:10:48;;;;;;;1.90;1.80;;;18.50;33.70;;;;;;4914922;29;20712;-84
2021/04/21 08:13:50;;;;;;;1.92;1.77;;;18.50;33.70;;;;;;4940386;29;20249;-84
2021/04/21 08:16:36;;;;;;;2.00;1.80;;;18.50;33.50;;;;;;4939258;29;20205;-84
2021/04/21 08:19:13;;;;;;;2.25;1.70;;;18.60;33.60;;;;;;4883219;29;20231;-84
2021/04/21 08:21:46;;;;;;;2.75;1.77;;;18.50;33.70;;;;;;4900679;29;20212;-82
2021/04/21 08:24:28;;;;;;;1.90;1.70;;;18.50;33.70;;;;;;4898189;29;20211;-85
2021/04/21 08:27:01;;;;;;;2.40;1.67;;;18.60;33.70;;;;;;4915343;29;20225;-85
2021/04/21 08:29:26;;;;;;;1.80;1.52;;;18.50;33.80;;;;;;4902448;29;20210;-83
2021/04/21 08:31:54;;;;;;;3.47;1.80;;;18.60;33.90;;;;;;4904345;29;20225;-82
2021/04/21 08:34:21;;;;;;;2.80;1.73;;;18.60;33.90;;;;;;4888744;29;20214;-83
2021/04/21 08:36:47;;;;;;;4.00;1.75;;;18.60;34.00;;;;;;4896045;29;20268;-83
2021/04/21 08:39:13;;;;;;;1.88;1.77;;;18.60;34.10;;;;;;4881016;29;20215;-81
2021/04/21 08:41:51;;;;;;;2.38;1.90;;;18.50;34.20;;;;;;4857385;29;20219;-82
2021/04/21 08:44:32;;;;;;;2.50;1.92;;;18.60;34.20;;;;;;4861983;29;20245;-83
2021/04/21 08:47:02;;;;;;;2.05;1.90;;;18.60;34.10;;;;;;4875664;29;20284;-82
2021/04/21 08:49:30;;;;;;;3.42;2.10;;;18.60;34.10;;;;;;4861815;29;20212;-81
2021/04/21 08:52:09;;;;;;;3.45;1.90;;;18.60;34.10;;;;;;4860645;29;20285;-83
2021/04/21 08:54:36;;;;;;;1.95;1.75;;;18.60;34.00;;;;;;4864692;29;20300;-82
2021/04/21 08:57:15;;;;;;;2.75;1.75;;;18.60;34.00;;;;;;4858335;29;20216;-82
2021/04/21 08:59:45;;;;;;;3.42;1.73;;;18.60;34.00;;;;;;4825643;29;20220;-84
2021/04/21 09:02:12;;;;;;;2.03;1.73;;;18.60;34.10;;;;;;4841587;29;20221;-83
2021/04/21 09:04:39;;;;;;;2.13;1.90;;;18.60;34.20;;;;;;4841321;29;20217;-82
2021/04/21 09:07:06;;;;;;;1.80;1.70;;;18.50;34.10;;;;;;4842406;29;20228;-82
2021/04/21 09:09:37;;;;;;;2.78;1.80;;;18.50;34.20;;;;;;4839910;29;20216;-82
2021/04/21 09:12:04;;;;;;;1.98;1.70;;;18.50;34.10;;;;;;4873000;29;20208;-79
2021/04/21 09:14:36;;;;;;;2.58;1.80;;;18.60;34.10;;;;;;4883106;29;20199;-83
2021/04/21 09:17:03;;;;;;;2.38;1.90;;;18.60;34.00;;;;;;4880299;29;20274;-81
2021/04/21 09:19:29;;;;;;;2.00;1.80;;;18.60;33.90;;;;;;4882380;29;20231;-82
2021/04/21 09:22:13;;;;;;;2.15;1.65;;;18.60;34.10;;;;;;4878969;29;20217;-80
2021/04/21 09:24:41;;;;;;;2.13;1.75;;;18.60;33.90;;;;;;4882123;29;20230;-83
2021/04/21 09:27:35;;;;;;;1.98;1.70;;;18.70;33.70;;;;;;4882168;29;20211;-82
2021/04/21 09:30:20;;;;;;;2.78;2.00;;;18.70;33.70;;;;;;4909513;29;20340;-84
2021/04/21 09:32:53;;;;;;;2.00;1.80;;;18.60;33.80;;;;;;4934700;29;20206;-82
2021/04/21 09:35:39;;;;;;;2.47;1.83;;;18.60;33.70;;;;;;4933389;29;20760;-83
2021/04/21 09:38:17;;;;;;;2.72;1.98;;;18.60;33.70;;;;;;4934545;29;20300;-82
2021/04/21 09:40:53;;;;;;;2.20;2.00;;;18.60;34.00;;;;;;4933782;29;20217;-83
2021/04/21 09:43:28;;;;;;;2.80;2.20;;;18.60;33.60;;;;;;4947264;29;20194;-82
2021/04/21 09:45:59;;;;;;;3.38;1.85;;;18.70;33.60;;;;;;4931319;29;20227;-81
2021/04/21 09:48:32;;;;;;;2.40;1.98;;;18.70;33.60;;;;;;4934890;29;20287;-81
2021/04/21 09:51:07;;;;;;;2.35;1.90;;;18.60;33.40;;;;;;4916056;29;20225;-81
2021/04/21 09:53:41;;;;;;;3.58;2.00;;;18.60;33.40;;;;;;4932714;29;20189;-84
2021/04/21 09:56:20;;;;;;;2.40;2.20;;;18.70;33.30;;;;;;4915714;29;20295;-83
2021/04/21 09:59:00;;;;;;;2.42;2.08;;;18.70;33.30;;;;;;4916918;29;20205;-86
2021/04/21 10:01:41;;;;;;;2.72;2.05;;;18.70;33.30;;;;;;4932827;29;20202;-83
2021/04/21 10:23:05;;;;;;;2.65;2.35;;;18.60;33.20;;;;;;6082672;23;21649;-80
2021/04/21 10:25:41;;;;;;;2.88;2.17;;;18.70;32.90;;;;;;4934907;29;20224;-81
2021/04/21 10:28:14;;;;;;;2.40;2.20;;;18.70;32.90;;;;;;4921833;29;20213;-84
2021/04/21 10:30:51;;;;;;;2.60;2.20;;;18.70;32.80;;;;;;4935959;29;20240;-81
2021/04/21 10:33:24;;;;;;;2.58;2.08;;;18.70;32.80;;;;;;4936019;29;20238;-80
2021/04/21 10:35:57;;;;;;;2.70;2.40;;;18.80;32.80;;;;;;4953206;29;20233;-79
2021/04/21 10:38:27;;;;;;;2.90;2.40;;;18.70;32.90;;;;;;4934480;29;20217;-82
2021/04/21 10:41:25;;;;;;;3.03;2.20;;;18.80;32.80;;;;;;4935208;28;20202;-83
2021/04/21 10:44:12;;;;;;;2.40;2.17;;;18.90;32.60;;;;;;4922280;29;20222;-83
2021/04/21 10:47:26;;;;;;;2.53;2.25;;;18.80;32.60;;;;;;4914000;29;20278;-81
2021/04/21 10:50:04;;;;;;;2.65;2.33;;;18.80;32.60;;;;;;4858915;29;20223;-82
2021/04/21 10:52:37;;;;;;;2.25;2.05;;;18.80;32.60;;;;;;4891918;29;20306;-83
2021/04/21 10:55:27;;;;;;;2.80;2.30;;;18.90;32.50;;;;;;4889071;29;20211;-83
2021/04/21 10:57:59;;;;;;;2.67;2.45;;;18.90;32.60;;;;;;4871683;29;20322;-85
2021/04/21 11:00:26;;;;;;;2.75;2.53;;;18.90;32.60;;;;;;4856588;29;20215;-85
2021/04/21 11:03:05;;;;;;;3.40;2.85;;;18.90;32.50;;;;;;4872583;29;20213;-86
2021/04/21 11:05:46;;;;;;;2.90;2.60;;;18.90;32.60;;;;;;4862015;29;20243;-80
2021/04/21 11:08:36;;;;;;;4.13;2.40;;;18.90;32.60;;;;;;4878945;29;20193;-80
2021/04/21 11:11:23;;;;;;;;;;;;;;;;;;;;;
2021/04/21 11:13:53;;;;;;;3.65;2.67;;;18.90;32.70;;;;;;4949710;29;20229;-81
2021/04/21 11:16:22;;;;;;;4.15;2.70;;;18.90;32.40;;;;;;4924354;29;20297;-80
2021/04/21 11:18:47;;;;;;;2.75;2.50;;;18.90;32.40;;;;;;4919693;29;20212;-81
2021/04/21 11:21:42;;;;;;;;;;;;;;;;;;;;;
2021/04/21 11:24:32;;;;;;;3.30;2.70;;;18.90;32.50;;;;;;4922330;29;20300;-81
2021/04/21 11:27:03;;;;;;;3.05;2.67;;;18.90;32.60;;;;;;4927196;29;20209;-81
2021/04/21 11:29:49;;;;;;;;;;;;;;;;;;;;;
2021/04/21 11:32:18;;;;;;;3.00;2.67;;;18.90;32.60;;;;;;4946103;29;20300;-80
2021/04/21 11:35:09;;;;;;;3.92;2.70;;;18.90;32.50;;;;;;4944903;29;20245;-80
2021/04/21 11:37:52;;;;;;;3.10;2.75;;;18.90;32.60;;;;;;4935353;29;20225;-80
2021/04/21 11:40:38;;;;;;;3.05;2.60;;;18.80;32.70;;;;;;4933846;29;20218;-81
2021/04/21 11:43:15;;;;;;;2.92;2.38;;;18.90;32.80;;;;;;4916534;29;20376;-81
2021/04/21 11:45:45;;;;;;;4.28;2.42;;;18.80;32.70;;;;;;4988505;28;20224;-81
2021/04/21 11:48:14;;;;;;;2.90;2.55;;;18.90;32.70;;;;;;4955577;28;20250;-82
2021/04/21 11:50:42;;;;;;;2.83;2.50;;;19.00;32.70;;;;;;4989631;28;20208;-81
2021/04/21 11:53:17;;;;;;;4.10;3.20;;;19.00;32.60;;;;;;4970626;28;20212;-81
2021/04/21 11:55:48;;;;;;;3.25;2.72;;;19.00;32.70;;;;;;5009275;28;20199;-80
2021/04/21 11:58:20;;;;;;;4.32;2.80;;;19.00;32.50;;;;;;4987545;28;20208;-81
2021/04/21 12:00:53;;;;;;;2.78;2.50;;;19.00;32.70;;;;;;4985648;28;20263;-82
2021/04/21 12:03:21;;;;;;;3.40;3.10;;;19.00;32.80;;;;;;4958859;28;20275;-81
2021/04/21 12:05:49;;;;;;;3.53;2.90;;;19.00;32.80;;;;;;4969164;28;20227;-82
2021/04/21 12:08:29;;;;;;;3.40;3.10;;;18.90;32.90;;;;;;4963473;28;20306;-82
2021/04/21 12:10:56;;;;;;;4.28;2.80;;;18.90;33.10;;;;;;4961434;28;20322;-80
2021/04/21 12:13:26;;;;;;;3.15;2.75;;;18.90;33.10;;;;;;4960524;28;20212;-81
2021/04/21 12:16:20;;;;;;;3.10;2.80;;;18.90;33.00;;;;;;4970100;28;20200;-80
2021/04/21 12:18:50;;;;;;;3.15;2.45;;;18.90;32.90;;;;;;4989798;28;20208;-81
2021/04/21 12:21:17;;;;;;;3.42;2.63;;;18.90;33.00;;;;;;4996402;28;20563;-80
2021/04/21 12:24:01;;;;;;;3.67;2.60;;;18.90;33.00;;;;;;4977508;28;20196;-81
2021/04/21 12:26:30;;;;;;;3.78;2.60;;;18.90;33.00;;;;;;4954466;29;20220;-81
2021/04/21 12:29:15;;;;;;;3.20;2.90;;;18.90;33.10;;;;;;4955544;29;20161;-81
2021/04/21 12:31:42;;;;;;;4.05;2.97;;;18.90;33.20;;;;;;4938349;29;20221;-81
2021/04/21 12:34:20;;;;;;;3.10;2.80;;;18.90;33.30;;;;;;4941240;29;20169;-82
2021/04/21 12:36:47;;;;;;;3.08;2.72;;;18.90;33.30;;;;;;4956680;29;20216;-82
2021/04/21 12:39:15;;;;;;;4.03;3.13;;;18.90;33.20;;;;;;4956651;29;20180;-81
2021/04/21 12:41:45;;;;;;;3.53;2.70;;;18.90;33.30;;;;;;4947742;29;20186;-82
2021/04/21 12:44:23;;;;;;;3.25;2.95;;;18.90;33.40;;;;;;4946822;29;20192;-81
2021/04/21 12:46:51;;;;;;;3.33;2.50;;;18.90;33.40;;;;;;4930801;29;20685;-81
2021/04/21 12:49:41;;;;;;;3.33;2.80;;;18.90;33.40;;;;;;4947607;29;20254;-81
2021/04/21 12:52:17;;;;;;;3.22;2.72;;;19.00;33.50;;;;;;4935438;29;20216;-82
2021/04/21 12:55:12;;;;;;;4.40;2.92;;;19.00;33.50;;;;;;4928305;29;20204;-83
2021/04/21 12:57:52;;;;;;;3.20;2.70;;;18.90;33.50;;;;;;4956463;28;20252;-84
2021/04/21 13:00:18;;;;;;;4.18;2.80;;;19.00;33.80;;;;;;5287485;23;20293;-79
2021/04/21 13:02:50;;;;;;;2.97;2.67;;;18.90;33.80;;;;;;4996291;28;20190;-80
2021/04/21 13:05:17;;;;;;;3.00;2.70;;;18.90;33.90;;;;;;5029486;28;20229;-80
2021/04/21 13:07:55;;;;;;;;;;;;;;;;;;;;;
2021/04/21 13:10:29;;;;;;;4.10;3.17;;;18.80;34.20;;;;;;4985253;28;20223;-81
2021/04/21 13:13:04;;;;;;;3.25;2.80;;;18.80;34.10;;;;;;4985590;28;20247;-80
2021/04/21 13:15:36;;;;;;;4.45;3.05;;;18.80;34.30;;;;;;4960593;28;20183;-82
2021/04/21 13:18:09;;;;;;;3.05;2.75;;;18.80;34.50;;;;;;4973864;28;20236;-82
2021/04/21 13:20:51;;;;;;;3.65;2.95;;;18.90;34.40;;;;;;4964424;28;20175;-81
2021/04/21 13:23:19;;;;;;;5.78;2.58;;;18.90;34.20;;;;;;4954870;28;20176;-81
2021/04/21 13:26:13;;;;;;;4.85;3.17;;;18.80;34.30;;;;;;4955037;28;20195;-81
2021/04/21 13:28:43;;;;;;;3.28;2.92;;;18.90;34.40;;;;;;4954799;28;20181;-81
2021/04/21 13:31:27;;;;;;;3.15;2.70;;;18.80;34.40;;;;;;4954220;28;20169;-81
2021/04/21 13:33:53;;;;;;;3.20;2.90;;;18.90;34.60;;;;;;4999516;28;20240;-81
2021/04/21 13:36:19;;;;;;;3.45;2.80;;;18.90;34.60;;;;;;4967129;28;20184;-80
2021/04/21 13:38:45;;;;;;;3.10;2.80;;;18.90;34.50;;;;;;4939334;28;20172;-81
2021/04/21 13:41:11;;;;;;;4.20;2.90;;;18.90;34.80;;;;;;4943231;28;20259;-81
2021/04/21 13:43:38;;;;;;;3.08;2.80;;;19.00;34.80;;;;;;4989125;28;20216;-81
2021/04/21 13:46:13;;;;;;;3.90;2.88;;;19.00;34.80;;;;;;4989255;28;20246;-81
2021/04/21 13:48:39;;;;;;;3.22;2.83;;;19.00;35.10;;;;;;4974165;28;20557;-81
2021/04/21 13:51:06;;;;;;;3.15;2.85;;;19.00;35.20;;;;;;4941523;28;20207;-81
2021/04/21 13:53:32;;;;;;;3.42;3.03;;;18.90;35.40;;;;;;4965686;28;20191;-81
2021/04/21 13:55:59;;;;;;;3.50;3.00;;;18.90;35.60;;;;;;4965438;28;20183;-82
2021/04/21 13:58:27;;;;;;;4.93;2.92;;;18.90;36.20;;;;;;4975117;28;20163;-79
2021/04/21 14:00:53;;;;;;;5.47;3.30;;;18.90;35.90;;;;;;5004852;28;20310;-80
2021/04/21 14:03:19;;;;;;;3.92;3.20;;;18.90;36.10;;;;;;4971686;28;20172;-82
2021/04/21 14:05:45;;;;;;;4.97;3.30;;;19.00;36.10;;;;;;4983376;28;20200;-79
2021/04/21 14:08:14;;;;;;;3.97;3.50;;;19.00;36.70;;;;;;4961215;28;20646;-80
2021/04/21 14:10:41;;;;;;;4.47;3.17;;;18.90;36.80;;;;;;4967252;28;20251;-81
2021/04/21 14:13:08;;;;;;;5.32;3.70;;;19.00;37.20;;;;;;4950838;28;20169;-79
2021/04/21 14:15:35;;;;;;;5.65;3.60;;;19.00;37.10;;;;;;4954195;28;20168;-79
2021/04/21 14:18:03;;;;;;;6.55;3.58;;;19.00;37.40;;;;;;4967077;28;20172;-80
2021/04/21 14:20:30;;;;;;;4.38;3.25;;;19.00;37.10;;;;;;4985420;28;20259;-79